Time;durP1;ratioP1;P1;durP2;ratioP2;P2;SDS_P1;SDS_P2;PMS_P1;PMS_P2;Temp;Humidity;BMP_temperature;BMP_pressure;BME280_temperature;BME280_humidity;BME280_pressure;Samples;Min_cycle;Max_cycle;Signal;HPM_P1;HPM_P2
2023/06/04 00:00:40;;;;;;;4.63;3.63;;;12.20;99.90;;;;;;5157392;27;20042;-73
2023/06/04 00:03:06;;;;;;;5.57;2.95;;;12.20;99.90;;;;;;5157186;27;20050;-73
2023/06/04 00:05:32;;;;;;;5.90;3.00;;;12.20;99.90;;;;;;5156907;27;20110;-73
2023/06/04 00:07:57;;;;;;;7.45;3.38;;;12.20;99.90;;;;;;5157202;27;20051;-73
2023/06/04 00:10:23;;;;;;;5.90;3.40;;;12.20;99.90;;;;;;5156944;27;20164;-73
2023/06/04 00:12:49;;;;;;;7.80;3.95;;;12.20;99.90;;;;;;5157130;27;20487;-73
2023/06/04 00:15:16;;;;;;;6.72;3.20;;;12.10;99.90;;;;;;5156699;27;20042;-73
2023/06/04 00:17:42;;;;;;;5.43;3.63;;;12.00;99.90;;;;;;5157018;27;20095;-73
2023/06/04 00:20:08;;;;;;;4.70;3.13;;;12.00;99.90;;;;;;5138206;27;20047;-73
2023/06/04 00:22:34;;;;;;;8.00;4.22;;;12.00;99.90;;;;;;5156981;27;20047;-73
2023/06/04 00:25:00;;;;;;;4.45;3.60;;;11.90;99.90;;;;;;5138510;27;20455;-73
2023/06/04 00:27:25;;;;;;;5.72;3.15;;;12.00;99.90;;;;;;5156529;27;20125;-73
2023/06/04 00:29:51;;;;;;;4.10;3.20;;;12.00;99.90;;;;;;5156735;27;20047;-73
2023/06/04 00:32:17;;;;;;;4.90;3.55;;;11.90;99.90;;;;;;5156867;27;20043;-73
2023/06/04 00:34:42;;;;;;;5.10;2.88;;;11.90;99.90;;;;;;5157968;27;20383;-73
2023/06/04 00:37:08;;;;;;;5.35;3.25;;;11.90;99.90;;;;;;5160336;27;20043;-72
2023/06/04 00:39:34;;;;;;;5.20;3.33;;;11.90;99.90;;;;;;5159914;27;20091;-72
2023/06/04 00:42:00;;;;;;;5.10;3.15;;;11.80;99.90;;;;;;5158793;27;20050;-73
2023/06/04 00:44:26;;;;;;;6.13;3.20;;;11.80;99.90;;;;;;5156910;27;20103;-73
2023/06/04 00:46:53;;;;;;;4.65;3.22;;;11.80;99.90;;;;;;5156091;27;20050;-73
2023/06/04 00:49:20;;;;;;;4.57;3.28;;;11.70;99.90;;;;;;5156316;27;20047;-73
2023/06/04 00:51:45;;;;;;;6.10;3.42;;;11.70;99.90;;;;;;5156575;27;20117;-73
2023/06/04 00:54:12;;;;;;;4.07;3.22;;;11.70;99.90;;;;;;5156458;27;20483;-73
2023/06/04 00:56:39;;;;;;;6.93;4.00;;;11.70;99.90;;;;;;5155862;27;20042;-73
2023/06/04 00:59:08;;;;;;;7.28;3.70;;;11.60;99.90;;;;;;5137776;27;20074;-73
2023/06/04 01:01:40;;;;;;;4.85;3.58;;;11.60;99.90;;;;;;5155791;27;20043;-74
2023/06/04 01:04:12;;;;;;;5.55;4.00;;;11.60;99.90;;;;;;5155886;27;20053;-74
2023/06/04 01:06:49;;;;;;;5.35;3.63;;;11.60;99.90;;;;;;5155494;27;20043;-73
2023/06/04 01:09:15;;;;;;;5.60;3.10;;;11.50;99.90;;;;;;5137577;27;20046;-73
2023/06/04 01:11:44;;;;;;;8.85;4.47;;;11.50;99.90;;;;;;5155359;27;20611;-74
2023/06/04 01:14:10;;;;;;;7.43;4.30;;;11.50;99.90;;;;;;5155841;27;20074;-74
2023/06/04 01:16:44;;;;;;;6.57;4.13;;;11.50;99.90;;;;;;5155370;27;20081;-73
2023/06/04 01:19:37;;;;;;;8.20;4.47;;;11.50;99.90;;;;;;5155757;27;20042;-73
2023/06/04 01:22:10;;;;;;;8.70;4.70;;;11.50;99.90;;;;;;5155462;27;20462;-74
2023/06/04 01:24:37;;;;;;;;;;;11.50;99.90;;;;;;5156491;27;20039;-73
2023/06/04 01:27:06;;;;;;;9.48;4.85;;;11.40;99.90;;;;;;5156051;27;19982;-73
2023/06/04 01:29:32;;;;;;;8.52;4.88;;;11.40;99.90;;;;;;5137583;27;20417;-73
2023/06/04 01:31:58;;;;;;;8.02;4.65;;;11.40;99.90;;;;;;5155825;27;20043;-73
2023/06/04 01:34:24;;;;;;;6.63;3.90;;;11.40;99.90;;;;;;5155035;27;20563;-73
2023/06/04 01:36:50;;;;;;;8.63;4.93;;;11.40;99.90;;;;;;5137026;27;20038;-73
2023/06/04 01:39:17;;;;;;;12.35;5.68;;;11.40;99.90;;;;;;5155089;27;20216;-73
2023/06/04 01:41:42;;;;;;;9.75;5.72;;;11.40;99.90;;;;;;5155405;27;20050;-73
2023/06/04 01:44:08;;;;;;;9.88;5.60;;;11.40;99.90;;;;;;5155053;27;20034;-74
2023/06/04 01:46:33;;;;;;;10.00;5.75;;;11.40;99.90;;;;;;5136878;27;20137;-73
2023/06/04 01:48:59;;;;;;;11.10;5.43;;;11.40;99.90;;;;;;5154764;27;20111;-73
2023/06/04 01:51:25;;;;;;;10.75;5.82;;;11.40;99.90;;;;;;5155243;27;20125;-73
2023/06/04 01:53:50;;;;;;;8.13;6.30;;;11.40;99.90;;;;;;5154642;27;20038;-73
2023/06/04 01:56:16;;;;;;;7.40;6.10;;;11.40;99.90;;;;;;5155151;27;20081;-73
2023/06/04 01:58:42;;;;;;;6.68;5.05;;;11.40;99.90;;;;;;5154722;27;20458;-74
2023/06/04 02:01:09;;;;;;;9.45;4.65;;;11.40;99.90;;;;;;5154534;27;20061;-75
2023/06/04 02:03:36;;;;;;;11.35;6.05;;;11.30;99.90;;;;;;5154684;27;20505;-74
2023/06/04 02:06:07;;;;;;;12.32;5.88;;;11.40;99.90;;;;;;5154487;27;20042;-74
2023/06/04 02:08:33;;;;;;;8.45;6.10;;;11.40;99.90;;;;;;5136257;27;20137;-74
2023/06/04 02:11:05;;;;;;;5.17;4.40;;;11.40;99.90;;;;;;5154764;27;20111;-74
2023/06/04 02:13:30;;;;;;;9.55;5.93;;;11.40;99.90;;;;;;5154530;27;20491;-73
2023/06/04 02:15:56;;;;;;;10.95;5.35;;;11.30;99.90;;;;;;5154594;27;20050;-74
2023/06/04 02:18:22;;;;;;;10.70;5.60;;;11.30;99.90;;;;;;5153629;27;20492;-74
2023/06/04 02:20:49;;;;;;;7.05;5.05;;;11.30;99.90;;;;;;5154445;27;20042;-74
2023/06/04 02:23:17;;;;;;;12.07;5.55;;;11.20;99.90;;;;;;5154340;27;20080;-74
2023/06/04 02:25:47;;;;;;;7.97;5.43;;;11.30;99.90;;;;;;5136054;27;20049;-74
2023/06/04 02:28:13;;;;;;;8.63;5.18;;;11.30;99.90;;;;;;5135760;27;20049;-74
2023/06/04 02:30:39;;;;;;;7.70;4.35;;;11.20;99.90;;;;;;5135840;27;20042;-74
2023/06/04 02:33:05;;;;;;;7.85;5.53;;;11.10;99.90;;;;;;5136101;27;20054;-74
2023/06/04 02:35:31;;;;;;;6.45;4.53;;;11.10;99.90;;;;;;5154589;27;20053;-74
2023/06/04 02:37:57;;;;;;;9.80;4.78;;;11.20;99.90;;;;;;5135915;27;20039;-74
2023/06/04 02:40:25;;;;;;;9.60;4.43;;;11.10;99.90;;;;;;5154123;27;20042;-73
2023/06/04 02:42:52;;;;;;;8.85;4.68;;;11.10;99.90;;;;;;5154097;27;20505;-74
2023/06/04 02:45:17;;;;;;;5.30;3.50;;;11.10;99.90;;;;;;5154673;27;20038;-74
2023/06/04 02:47:43;;;;;;;6.68;4.72;;;11.10;99.90;;;;;;5154502;27;20490;-74
2023/06/04 02:50:09;;;;;;;8.25;4.55;;;11.00;99.90;;;;;;5154028;27;20051;-74
2023/06/04 02:52:36;;;;;;;10.70;4.82;;;11.00;99.90;;;;;;5154391;27;20042;-74
2023/06/04 02:55:04;;;;;;;6.07;3.78;;;11.00;99.90;;;;;;5154546;27;20107;-74
2023/06/04 02:57:30;;;;;;;8.68;5.00;;;10.90;99.90;;;;;;5153890;27;20043;-74
2023/06/04 02:59:56;;;;;;;8.98;4.47;;;10.90;99.90;;;;;;5154097;27;20045;-74
2023/06/04 03:02:22;;;;;;;9.93;5.78;;;10.90;99.90;;;;;;5154060;27;20066;-74
2023/06/04 03:04:47;;;;;;;9.60;4.55;;;10.90;99.90;;;;;;5135769;27;20493;-74
2023/06/04 03:07:13;;;;;;;11.82;5.70;;;10.90;99.90;;;;;;5135475;27;20076;-74
2023/06/04 03:09:40;;;;;;;9.55;5.80;;;10.90;99.90;;;;;;5119217;27;20046;-74
2023/06/04 03:12:06;;;;;;;8.68;5.20;;;10.90;99.90;;;;;;5154001;27;20094;-74
2023/06/04 03:14:32;;;;;;;9.77;5.97;;;10.90;99.90;;;;;;5135765;27;20131;-74
2023/06/04 03:17:07;;;;;;;10.82;6.20;;;10.90;99.90;;;;;;5135256;27;20046;-74
2023/06/04 03:19:37;;;;;;;13.00;7.03;;;10.90;99.90;;;;;;5153629;27;20467;-74
2023/06/04 03:22:05;;;;;;;13.15;6.57;;;10.90;99.90;;;;;;5153857;27;20053;-73
2023/06/04 03:24:36;;;;;;;9.95;6.82;;;10.80;99.90;;;;;;5153787;27;20121;-74
2023/06/04 03:27:03;;;;;;;9.30;5.28;;;10.80;99.90;;;;;;5154227;27;20053;-74
2023/06/04 03:29:30;;;;;;;9.50;5.85;;;10.80;99.90;;;;;;5155479;27;20517;-74
2023/06/04 03:31:56;;;;;;;10.00;6.75;;;10.80;99.90;;;;;;5139287;27;20050;-73
2023/06/04 03:34:24;;;;;;;10.95;7.10;;;10.90;99.90;;;;;;5158179;27;20081;-73
2023/06/04 03:36:51;;;;;;;13.52;7.50;;;10.80;99.90;;;;;;5157781;27;20121;-73
2023/06/04 03:39:17;;;;;;;15.40;7.30;;;10.80;99.90;;;;;;5157541;27;20057;-74
2023/06/04 03:41:43;;;;;;;11.55;7.32;;;10.90;99.90;;;;;;5157739;27;20121;-74
2023/06/04 03:44:09;;;;;;;13.65;7.35;;;10.90;99.90;;;;;;5157727;27;20050;-73
2023/06/04 03:46:35;;;;;;;12.95;7.65;;;10.90;99.90;;;;;;5157310;27;20475;-73
2023/06/04 03:49:02;;;;;;;14.63;8.00;;;11.00;99.90;;;;;;5139096;27;20507;-73
2023/06/04 03:51:27;;;;;;;18.75;9.13;;;11.00;99.90;;;;;;5158238;27;20125;-73
2023/06/04 03:53:53;;;;;;;12.50;8.77;;;11.00;99.90;;;;;;5159690;27;20097;-73
2023/06/04 03:56:19;;;;;;;14.68;8.50;;;11.00;99.90;;;;;;5159619;27;20046;-72
2023/06/04 03:58:45;;;;;;;16.65;9.73;;;11.10;99.90;;;;;;5140168;27;20086;-73
2023/06/04 04:01:11;;;;;;;13.23;8.75;;;11.10;99.90;;;;;;5158140;27;20107;-72
2023/06/04 04:03:36;;;;;;;12.32;7.15;;;11.10;99.90;;;;;;5139479;27;20053;-73
2023/06/04 04:06:02;;;;;;;17.40;10.30;;;11.10;99.90;;;;;;5157863;27;20043;-73
2023/06/04 04:08:31;;;;;;;9.35;7.65;;;11.20;99.90;;;;;;5138754;27;20039;-74
2023/06/04 04:10:57;;;;;;;12.32;8.43;;;11.20;99.90;;;;;;5157306;27;20179;-74
2023/06/04 04:13:23;;;;;;;18.75;8.93;;;11.20;99.90;;;;;;5138942;27;20047;-74
2023/06/04 04:15:52;;;;;;;13.65;8.45;;;11.30;99.90;;;;;;5156893;27;20070;-74
2023/06/04 04:18:20;;;;;;;14.18;8.25;;;11.30;99.90;;;;;;5138826;27;20046;-74
2023/06/04 04:20:46;;;;;;;11.68;8.93;;;11.30;99.90;;;;;;5156928;27;20042;-74
2023/06/04 04:23:12;;;;;;;14.05;7.80;;;11.30;99.90;;;;;;5138487;27;20043;-74
2023/06/04 04:25:38;;;;;;;18.23;8.63;;;11.50;99.90;;;;;;5157027;27;20103;-74
2023/06/04 04:28:07;;;;;;;13.73;7.70;;;11.40;99.90;;;;;;5156783;27;20114;-73
2023/06/04 04:30:36;;;;;;;15.98;9.40;;;11.50;99.90;;;;;;5156967;27;20046;-75
2023/06/04 04:33:04;;;;;;;15.48;9.35;;;11.50;99.90;;;;;;5156419;27;20045;-74
2023/06/04 04:35:32;;;;;;;24.15;9.90;;;11.50;99.90;;;;;;5138638;27;20388;-74
2023/06/04 04:37:58;;;;;;;16.15;9.45;;;11.50;99.90;;;;;;5156276;27;20491;-73
2023/06/04 04:40:24;;;;;;;18.80;10.27;;;11.60;99.90;;;;;;5155761;27;20049;-75
2023/06/04 04:42:50;;;;;;;14.52;9.05;;;11.60;99.90;;;;;;5156171;27;20125;-73
2023/06/04 04:45:17;;;;;;;14.65;9.05;;;11.60;99.90;;;;;;5156161;27;20042;-71
2023/06/04 04:47:43;;;;;;;17.08;8.82;;;11.60;99.90;;;;;;5156083;27;20042;-71
2023/06/04 04:50:09;;;;;;;11.48;8.40;;;11.60;99.90;;;;;;5156442;27;20387;-74
2023/06/04 04:52:35;;;;;;;10.60;7.75;;;11.70;99.90;;;;;;5156220;27;20050;-73
2023/06/04 04:55:00;;;;;;;9.18;6.80;;;11.70;99.90;;;;;;5156412;27;20447;-73
2023/06/04 04:57:26;;;;;;;13.30;7.65;;;11.80;99.90;;;;;;5155901;27;20500;-74
2023/06/04 04:59:52;;;;;;;12.38;8.38;;;11.80;99.90;;;;;;5155968;27;20047;-73
2023/06/04 05:02:17;;;;;;;11.82;8.35;;;10.90;99.90;;;;;;5155858;27;20522;-72
2023/06/04 05:04:43;;;;;;;13.95;7.97;;;12.00;99.90;;;;;;5137559;27;20042;-74
2023/06/04 05:07:09;;;;;;;9.57;6.68;;;10.50;99.90;;;;;;5155823;27;20045;-73
2023/06/04 05:09:35;;;;;;;15.80;8.63;;;12.10;99.90;;;;;;5155768;27;20360;-73
2023/06/04 05:12:01;;;;;;;9.93;6.88;;;12.10;99.90;;;;;;5155591;27;20055;-73
2023/06/04 05:14:28;;;;;;;12.35;7.07;;;12.20;99.90;;;;;;5155960;27;20046;-73
2023/06/04 05:16:56;;;;;;;10.23;6.95;;;12.20;99.90;;;;;;5136855;27;20472;-75
2023/06/04 05:19:23;;;;;;;9.30;6.47;;;12.20;99.90;;;;;;5155479;27;20054;-75
2023/06/04 05:21:49;;;;;;;11.27;7.85;;;12.30;99.90;;;;;;5155287;27;20046;-74
2023/06/04 05:24:16;;;;;;;13.27;6.43;;;12.40;99.90;;;;;;5155344;27;20057;-74
2023/06/04 05:26:41;;;;;;;9.80;7.05;;;12.50;99.90;;;;;;5155297;27;20484;-74
2023/06/04 05:29:07;;;;;;;8.85;6.32;;;12.60;99.90;;;;;;5155759;27;20050;-74
2023/06/04 05:31:34;;;;;;;9.88;7.05;;;12.60;99.90;;;;;;5137281;27;20042;-75
2023/06/04 05:34:07;;;;;;;11.07;6.15;;;12.60;99.90;;;;;;5155585;27;20111;-75
2023/06/04 05:36:32;;;;;;;8.07;6.20;;;12.70;99.90;;;;;;5137895;27;20046;-74
2023/06/04 05:38:59;;;;;;;13.18;6.18;;;12.80;99.90;;;;;;5155287;27;20446;-74
2023/06/04 05:41:27;;;;;;;11.48;6.20;;;12.90;99.90;;;;;;5136798;27;20059;-73
2023/06/04 05:43:53;;;;;;;10.65;6.53;;;13.00;99.90;;;;;;5154755;27;20054;-73
2023/06/04 05:46:19;;;;;;;8.93;5.45;;;13.10;99.90;;;;;;5155352;27;20043;-73
2023/06/04 05:48:45;;;;;;;10.13;5.38;;;13.20;99.90;;;;;;5154823;27;20054;-75
2023/06/04 05:51:13;;;;;;;9.25;5.53;;;13.20;99.90;;;;;;5154831;27;20047;-74
2023/06/04 05:53:38;;;;;;;10.40;4.88;;;13.30;99.90;;;;;;5154180;27;20047;-74
2023/06/04 05:56:04;;;;;;;9.77;5.30;;;13.40;99.90;;;;;;5154746;27;20604;-72
2023/06/04 05:58:32;;;;;;;8.30;4.55;;;13.50;99.90;;;;;;5136296;27;20424;-74
2023/06/04 06:00:57;;;;;;;10.38;5.40;;;13.60;99.90;;;;;;5154677;27;20050;-74
2023/06/04 06:03:23;;;;;;;12.43;4.60;;;13.70;99.90;;;;;;5154633;27;20130;-74
2023/06/04 06:05:49;;;;;;;9.05;4.55;;;13.90;99.90;;;;;;5154442;27;20039;-75
2023/06/04 06:08:15;;;;;;;8.98;4.10;;;13.90;99.90;;;;;;5154365;27;20043;-74
2023/06/04 06:10:40;;;;;;;7.93;4.25;;;14.00;99.90;;;;;;5154805;27;20455;-74
2023/06/04 06:13:06;;;;;;;7.20;4.25;;;14.20;99.90;;;;;;5136713;27;20125;-75
2023/06/04 06:15:32;;;;;;;7.75;4.30;;;14.20;99.90;;;;;;5154698;27;20480;-73
2023/06/04 06:17:58;;;;;;;7.10;3.85;;;14.40;99.90;;;;;;5154758;27;20065;-74
2023/06/04 06:20:24;;;;;;;11.82;4.53;;;14.70;99.90;;;;;;5154713;27;20471;-75
2023/06/04 06:22:50;;;;;;;10.07;4.00;;;15.50;99.90;;;;;;5154262;27;20081;-76
2023/06/04 06:25:16;;;;;;;7.60;3.65;;;16.70;99.90;;;;;;5135615;27;20043;-71
2023/06/04 06:27:42;;;;;;;4.68;3.65;;;17.70;99.90;;;;;;5154529;27;20045;-72
2023/06/04 06:30:08;;;;;;;9.20;3.75;;;18.40;99.90;;;;;;5154094;27;20043;-72
2023/06/04 06:32:35;;;;;;;6.80;3.72;;;19.10;99.90;;;;;;5154512;27;20110;-72
2023/06/04 06:35:01;;;;;;;5.15;2.88;;;19.20;99.90;;;;;;5154086;27;20043;-72
2023/06/04 06:37:27;;;;;;;5.50;3.40;;;19.10;99.90;;;;;;5153949;27;20046;-71
2023/06/04 06:39:52;;;;;;;5.35;3.10;;;19.40;99.90;;;;;;5154449;27;20506;-72
2023/06/04 06:42:19;;;;;;;5.53;3.42;;;19.60;99.90;;;;;;5153698;27;20035;-71
2023/06/04 06:44:45;;;;;;;10.98;3.80;;;20.20;99.90;;;;;;5154778;27;20134;-72
2023/06/04 06:47:13;;;;;;;6.65;2.92;;;20.70;99.90;;;;;;5154356;27;20074;-72
2023/06/04 06:49:42;;;;;;;8.10;3.05;;;21.20;99.90;;;;;;5154119;27;20090;-72
2023/06/04 06:52:08;;;;;;;6.90;2.72;;;20.90;98.90;;;;;;5154128;27;20122;-72
2023/06/04 06:54:34;;;;;;;4.90;3.03;;;21.10;99.90;;;;;;5154193;27;20046;-72
2023/06/04 06:56:59;;;;;;;7.90;3.42;;;21.60;99.90;;;;;;5153906;27;20035;-71
2023/06/04 06:59:25;;;;;;;6.80;2.83;;;21.60;99.90;;;;;;5154132;27;20470;-73
2023/06/04 07:01:51;;;;;;;7.10;3.28;;;22.00;99.90;;;;;;5118036;27;20168;-72
2023/06/04 07:04:17;;;;;;;7.43;3.03;;;22.10;99.10;;;;;;5155251;27;20487;-73
2023/06/04 07:06:43;;;;;;;7.53;3.30;;;22.20;98.00;;;;;;5158131;27;20042;-73
2023/06/04 07:09:09;;;;;;;6.47;3.15;;;22.20;97.60;;;;;;5160509;27;20082;-73
2023/06/04 07:11:35;;;;;;;4.57;2.70;;;22.30;97.50;;;;;;5161838;27;20042;-74
2023/06/04 07:14:02;;;;;;;5.43;2.50;;;22.60;96.60;;;;;;5142829;27;20052;-73
2023/06/04 07:16:28;;;;;;;9.43;2.53;;;22.40;96.80;;;;;;5124197;27;20110;-74
2023/06/04 07:18:54;;;;;;;3.08;2.03;;;22.30;96.00;;;;;;5158010;27;20047;-73
2023/06/04 07:21:21;;;;;;;6.63;2.22;;;22.40;95.40;;;;;;5139323;27;20095;-73
2023/06/04 07:23:49;;;;;;;3.03;2.00;;;22.60;95.40;;;;;;5139760;27;20051;-74
2023/06/04 07:26:15;;;;;;;4.38;1.98;;;23.00;94.70;;;;;;5157937;27;20157;-73
2023/06/04 07:28:41;;;;;;;3.05;1.95;;;23.20;94.10;;;;;;5158043;27;20049;-74
2023/06/04 07:31:07;;;;;;;5.70;1.73;;;23.30;93.30;;;;;;5158132;27;20042;-73
2023/06/04 07:33:33;;;;;;;2.10;1.70;;;23.70;92.80;;;;;;5158174;27;20042;-74
2023/06/04 07:35:59;;;;;;;3.22;1.73;;;24.00;91.80;;;;;;5158080;27;20090;-74
2023/06/04 07:38:25;;;;;;;2.63;1.40;;;23.90;90.70;;;;;;5157492;27;20486;-74
2023/06/04 07:40:51;;;;;;;1.90;1.17;;;24.00;90.60;;;;;;5139068;27;20066;-73
2023/06/04 07:43:17;;;;;;;4.80;1.80;;;23.90;88.00;;;;;;5157512;27;20050;-74
2023/06/04 07:45:43;;;;;;;1.48;1.33;;;23.90;85.30;;;;;;5138899;27;20038;-74
2023/06/04 07:48:11;;;;;;;2.78;1.63;;;24.20;84.80;;;;;;5157148;27;20043;-73
2023/06/04 07:50:37;;;;;;;3.30;1.50;;;24.00;83.50;;;;;;5157541;27;20414;-73
2023/06/04 07:53:03;;;;;;;3.00;1.65;;;23.70;81.10;;;;;;5157205;27;20035;-73
2023/06/04 07:55:29;;;;;;;2.03;1.88;;;23.60;82.40;;;;;;5157222;27;20050;-73
2023/06/04 07:57:54;;;;;;;2.75;1.60;;;24.00;81.40;;;;;;5156989;27;20039;-72
2023/06/04 08:00:20;;;;;;;3.92;1.70;;;24.00;81.60;;;;;;5139012;27;20051;-72
2023/06/04 08:02:46;;;;;;;1.45;1.17;;;24.20;80.40;;;;;;5156899;27;20052;-74
2023/06/04 08:05:13;;;;;;;3.80;1.60;;;24.20;80.10;;;;;;5156732;27;20042;-72
2023/06/04 08:07:40;;;;;;;2.30;1.40;;;24.00;80.50;;;;;;5157283;27;20054;-72
2023/06/04 08:10:06;;;;;;;4.55;1.88;;;24.30;80.50;;;;;;5156721;27;20117;-74
2023/06/04 08:12:32;;;;;;;3.80;1.55;;;24.60;80.80;;;;;;5157356;27;20447;-73
2023/06/04 08:14:58;;;;;;;2.58;1.30;;;24.40;79.20;;;;;;5156747;27;20121;-73
2023/06/04 08:17:24;;;;;;;3.28;1.60;;;24.80;77.30;;;;;;5155774;27;20117;-72
2023/06/04 08:19:50;;;;;;;1.40;1.30;;;24.90;75.00;;;;;;5157369;27;20060;-73
2023/06/04 08:22:15;;;;;;;1.70;1.60;;;24.80;74.00;;;;;;5156403;27;20099;-72
2023/06/04 08:24:41;;;;;;;2.65;1.17;;;24.90;75.20;;;;;;5156708;27;20122;-74
2023/06/04 08:27:08;;;;;;;4.90;1.73;;;25.20;75.40;;;;;;5156529;27;20376;-73
2023/06/04 08:29:35;;;;;;;2.88;1.75;;;25.20;76.00;;;;;;5138585;27;20096;-74
2023/06/04 08:32:02;;;;;;;2.15;1.33;;;25.00;75.80;;;;;;5138192;27;20073;-74
2023/06/04 08:34:28;;;;;;;3.80;1.70;;;24.70;76.20;;;;;;5138234;27;20467;-73
2023/06/04 08:36:53;;;;;;;2.85;1.60;;;24.50;76.40;;;;;;5156284;27;20045;-72
2023/06/04 08:39:19;;;;;;;3.95;1.65;;;24.40;76.00;;;;;;5156284;27;20129;-73
2023/06/04 08:41:50;;;;;;;4.65;1.98;;;24.00;75.80;;;;;;5137958;27;20039;-72
2023/06/04 08:44:19;;;;;;;1.92;1.33;;;24.40;75.60;;;;;;5156694;27;20141;-72
2023/06/04 08:46:47;;;;;;;2.35;1.63;;;24.50;73.70;;;;;;5137856;27;20391;-72
2023/06/04 08:49:13;;;;;;;2.45;1.38;;;24.60;75.10;;;;;;5155880;27;20098;-73
2023/06/04 08:51:39;;;;;;;1.88;1.40;;;24.30;71.80;;;;;;5138446;27;20483;-72
2023/06/04 08:54:05;;;;;;;3.78;1.65;;;24.20;73.90;;;;;;5156450;27;20128;-73
2023/06/04 08:56:32;;;;;;;5.07;1.75;;;24.10;75.90;;;;;;5137393;27;20049;-75
2023/06/04 08:59:10;;;;;;;3.92;1.90;;;23.30;77.90;;;;;;5137768;27;20042;-72
2023/06/04 09:01:41;;;;;;;3.33;1.50;;;23.90;77.20;;;;;;5137582;27;20085;-72
2023/06/04 09:04:07;;;;;;;2.38;1.52;;;24.50;78.50;;;;;;5155788;27;20513;-73
2023/06/04 09:06:33;;;;;;;3.13;1.83;;;24.30;79.70;;;;;;5120119;27;20039;-74
2023/06/04 09:09:04;;;;;;;4.97;1.67;;;24.10;79.40;;;;;;5155482;27;20050;-73
2023/06/04 09:11:35;;;;;;;1.92;1.73;;;24.40;78.80;;;;;;5155766;27;20179;-74
2023/06/04 09:14:05;;;;;;;4.95;1.70;;;23.80;78.00;;;;;;5155781;27;20051;-72
2023/06/04 09:16:37;;;;;;;3.03;1.50;;;23.70;80.00;;;;;;5155562;27;20463;-74
2023/06/04 09:19:04;;;;;;;3.72;1.85;;;23.80;81.00;;;;;;5137161;27;20046;-73
2023/06/04 09:21:29;;;;;;;3.08;1.63;;;23.70;80.50;;;;;;5137140;27;20179;-73
2023/06/04 09:23:55;;;;;;;5.05;2.25;;;24.10;81.00;;;;;;5137416;27;20128;-71
2023/06/04 09:26:21;;;;;;;3.90;1.75;;;23.50;80.50;;;;;;5155321;27;20038;-72
2023/06/04 09:28:47;;;;;;;2.92;1.77;;;23.30;80.50;;;;;;5155162;27;20104;-74
2023/06/04 09:31:16;;;;;;;2.45;1.60;;;23.20;82.30;;;;;;5137306;27;20081;-74
2023/06/04 09:33:48;;;;;;;4.63;1.80;;;23.10;81.80;;;;;;5155212;27;20050;-74
2023/06/04 09:36:14;;;;;;;5.63;1.58;;;23.00;83.00;;;;;;5155716;27;20050;-74
2023/06/04 09:38:41;;;;;;;2.45;1.60;;;23.20;83.00;;;;;;5136254;27;20395;-74
2023/06/04 09:41:14;;;;;;;3.88;1.95;;;22.50;81.40;;;;;;5119915;27;20045;-74
2023/06/04 09:43:40;;;;;;;4.18;1.67;;;22.60;81.80;;;;;;5136407;27;20501;-72
2023/06/04 09:46:10;;;;;;;1.80;1.25;;;22.50;81.90;;;;;;5119460;27;20075;-75
2023/06/04 09:48:37;;;;;;;3.60;1.63;;;22.50;80.20;;;;;;5136198;27;20057;-74
2023/06/04 09:51:10;;;;;;;3.97;2.10;;;22.70;82.50;;;;;;5154866;27;20091;-70
2023/06/04 09:53:37;;;;;;;4.30;2.17;;;22.00;81.40;;;;;;5154867;27;20060;-78
2023/06/04 09:56:04;;;;;;;2.03;1.70;;;21.80;83.00;;;;;;5154641;27;20050;-74
2023/06/04 09:58:31;;;;;;;2.80;1.60;;;21.70;83.80;;;;;;5154614;27;20485;-74
2023/06/04 10:00:58;;;;;;;3.30;1.80;;;21.70;84.10;;;;;;5154502;27;20039;-74
2023/06/04 10:03:27;;;;;;;2.83;1.50;;;21.60;83.80;;;;;;5154435;27;20046;-74
2023/06/04 10:05:55;;;;;;;6.55;1.75;;;21.30;84.90;;;;;;5119557;27;20096;-74
2023/06/04 10:08:25;;;;;;;2.58;1.60;;;21.70;85.60;;;;;;5154758;27;20043;-75
2023/06/04 10:10:54;;;;;;;3.10;1.42;;;22.30;84.20;;;;;;5154538;27;20046;-74
2023/06/04 10:13:23;;;;;;;2.15;1.38;;;22.30;82.90;;;;;;5154430;27;20097;-75
2023/06/04 10:15:49;;;;;;;2.90;1.48;;;22.80;83.40;;;;;;5154490;27;20070;-72
2023/06/04 10:18:16;;;;;;;2.00;1.77;;;22.10;81.00;;;;;;5118790;27;20051;-73
2023/06/04 10:20:42;;;;;;;1.95;1.48;;;22.20;83.60;;;;;;5154544;27;20175;-74
2023/06/04 10:23:08;;;;;;;3.85;1.70;;;22.40;83.40;;;;;;5154569;27;20046;-73
2023/06/04 10:25:37;;;;;;;1.33;1.20;;;22.60;82.20;;;;;;5155064;27;20042;-74
2023/06/04 10:28:04;;;;;;;2.90;1.85;;;22.70;80.60;;;;;;5155442;27;20452;-73
2023/06/04 10:30:30;;;;;;;4.00;1.70;;;23.00;81.40;;;;;;5136452;27;20049;-75
2023/06/04 10:32:59;;;;;;;3.83;1.65;;;22.80;82.40;;;;;;5154309;27;20516;-74
2023/06/04 10:35:33;;;;;;;5.57;2.83;;;22.80;82.30;;;;;;5154595;27;20465;-74
2023/06/04 10:38:16;;;;;;;2.65;1.35;;;22.60;82.00;;;;;;5154174;27;20043;-74
2023/06/04 10:40:42;;;;;;;2.10;1.63;;;22.30;81.70;;;;;;5136065;27;20456;-74
2023/06/04 10:43:13;;;;;;;3.55;1.58;;;22.80;82.90;;;;;;5135684;27;20061;-74
2023/06/04 10:45:40;;;;;;;1.80;1.50;;;23.00;82.70;;;;;;5154022;27;20062;-75
2023/06/04 10:48:10;;;;;;;3.75;1.73;;;23.20;82.70;;;;;;5135732;27;20038;-74
2023/06/04 10:50:49;;;;;;;2.13;1.52;;;23.10;82.10;;;;;;5135571;27;20410;-74
2023/06/04 10:53:15;;;;;;;2.22;1.35;;;22.50;81.70;;;;;;5135508;27;20064;-74
2023/06/04 10:55:45;;;;;;;4.82;1.90;;;22.30;81.30;;;;;;5153937;27;20134;-73
2023/06/04 10:58:11;;;;;;;2.25;1.60;;;22.20;83.00;;;;;;5154284;27;20043;-74
2023/06/04 11:00:49;;;;;;;2.80;1.50;;;22.30;83.50;;;;;;5154214;27;20110;-74
2023/06/04 11:03:15;;;;;;;1.58;1.48;;;22.60;82.50;;;;;;5154230;27;20459;-74
2023/06/04 11:05:43;;;;;;;3.53;1.73;;;22.70;82.50;;;;;;5153808;27;20134;-74
2023/06/04 11:08:10;;;;;;;6.95;2.13;;;22.40;81.30;;;;;;5153747;27;20046;-73
2023/06/04 11:10:38;;;;;;;2.53;1.80;;;22.20;81.90;;;;;;5153636;27;20091;-72
2023/06/04 11:13:05;;;;;;;4.25;2.17;;;22.00;82.60;;;;;;5153552;27;20043;-72
2023/06/04 11:15:44;;;;;;;2.53;1.60;;;21.80;83.10;;;;;;5134633;27;20035;-73
2023/06/04 11:18:19;;;;;;;3.55;2.20;;;21.80;85.00;;;;;;5153434;27;20050;-74
2023/06/04 11:20:50;;;;;;;2.63;1.80;;;21.60;83.80;;;;;;5153730;27;20046;-73
2023/06/04 11:23:16;;;;;;;2.67;1.80;;;21.50;84.70;;;;;;5153716;27;20042;-74
2023/06/04 11:25:46;;;;;;;2.90;1.52;;;21.20;84.40;;;;;;5135018;27;20050;-74
2023/06/04 11:28:21;;;;;;;2.75;1.63;;;21.50;84.20;;;;;;5135596;27;20038;-74
2023/06/04 11:31:03;;;;;;;3.42;2.10;;;21.70;85.50;;;;;;5154032;27;20101;-74
2023/06/04 11:33:30;;;;;;;5.00;1.85;;;21.30;85.00;;;;;;5153417;27;20162;-73
2023/06/04 11:35:56;;;;;;;2.28;2.15;;;21.40;85.10;;;;;;5153303;27;20082;-73
2023/06/04 11:38:22;;;;;;;3.15;1.80;;;21.20;85.10;;;;;;5153174;27;20038;-73
2023/06/04 11:41:01;;;;;;;3.85;2.03;;;21.20;85.60;;;;;;5134658;27;20051;-73
2023/06/04 11:43:28;;;;;;;4.53;1.90;;;21.10;85.70;;;;;;5153505;27;20046;-73
2023/06/04 11:45:55;;;;;;;3.72;1.88;;;21.20;85.70;;;;;;5154228;27;20081;-74
2023/06/04 11:48:21;;;;;;;1.63;1.52;;;21.40;85.90;;;;;;5153334;27;20055;-74
2023/06/04 11:50:46;;;;;;;3.00;1.80;;;21.30;85.90;;;;;;5155301;27;20095;-73
2023/06/04 11:53:12;;;;;;;1.90;1.42;;;21.10;85.70;;;;;;5157496;27;20043;-75
2023/06/04 11:55:39;;;;;;;4.35;1.90;;;20.90;86.30;;;;;;5157018;27;20047;-74
2023/06/04 11:58:05;;;;;;;2.95;1.83;;;20.70;85.90;;;;;;5157507;27;20039;-73
2023/06/04 12:00:31;;;;;;;3.78;1.88;;;21.00;86.80;;;;;;5157072;27;20050;-74
2023/06/04 12:02:57;;;;;;;2.70;1.60;;;20.70;86.30;;;;;;5157339;27;20084;-73
2023/06/04 12:05:32;;;;;;;2.58;1.73;;;21.10;86.70;;;;;;5156957;27;20488;-73
2023/06/04 12:08:09;;;;;;;3.10;2.00;;;21.20;86.50;;;;;;5138762;27;20463;-72
2023/06/04 12:10:42;;;;;;;3.38;1.90;;;21.40;86.10;;;;;;5157271;27;20110;-73
2023/06/04 12:13:09;;;;;;;3.55;1.88;;;21.50;85.90;;;;;;5156888;27;20111;-73
2023/06/04 12:15:35;;;;;;;2.55;1.90;;;21.40;85.60;;;;;;5156842;27;20195;-74
2023/06/04 12:18:02;;;;;;;4.10;2.17;;;21.30;86.10;;;;;;5138739;27;20517;-74
2023/06/04 12:20:35;;;;;;;2.70;1.70;;;21.00;86.30;;;;;;5121420;27;20047;-73
2023/06/04 12:23:05;;;;;;;3.38;1.90;;;21.20;86.20;;;;;;5156636;27;20062;-72
2023/06/04 12:25:33;;;;;;;4.72;2.47;;;21.30;85.70;;;;;;5156625;27;20087;-72
2023/06/04 12:27:59;;;;;;;2.55;1.83;;;21.30;86.50;;;;;;5156377;27;20031;-73
2023/06/04 12:30:38;;;;;;;5.10;2.08;;;21.40;87.00;;;;;;5121207;27;20123;-74
2023/06/04 12:33:04;;;;;;;1.80;1.60;;;21.30;86.70;;;;;;5156949;27;20057;-73
2023/06/04 12:35:29;;;;;;;4.72;2.47;;;21.30;87.40;;;;;;5156415;27;20460;-74
2023/06/04 12:37:55;;;;;;;2.47;1.88;;;21.40;87.50;;;;;;5156043;27;20376;-74
2023/06/04 12:40:21;;;;;;;4.07;1.92;;;21.30;87.50;;;;;;5156567;27;20426;-74
2023/06/04 12:42:50;;;;;;;5.75;2.47;;;21.10;87.70;;;;;;5156435;27;20046;-73
2023/06/04 12:45:17;;;;;;;3.00;1.95;;;21.00;88.70;;;;;;5156305;27;20038;-75